Time;durP1;ratioP1;P1;durP2;ratioP2;P2;SDS_P1;SDS_P2;PMS_P1;PMS_P2;Temp;Humidity;BMP_temperature;BMP_pressure;BME280_temperature;BME280_humidity;BME280_pressure;Samples;Min_cycle;Max_cycle;Signal;HPM_P1;HPM_P2
2022/05/21 00:00:28;;;;;;;;;;;;;;;23.83;51.90;100327.06;2051227;28;19910;-46
2022/05/21 00:01:30;;;;;;;;;;;;;;;23.83;51.81;100330.66;2051094;28;19909;-45
2022/05/21 00:02:31;;;;;;;;;;;;;;;23.83;51.88;100322.41;2046558;28;19910;-47
2022/05/21 00:03:31;;;;;;;;;;;;;;;23.82;51.82;100320.69;2049066;28;20029;-46
2022/05/21 00:04:31;;;;;;;;;;;;;;;23.83;51.73;100329.81;2054477;28;20304;-46
2022/05/21 00:05:35;;;;;;;;;;;;;;;23.82;51.73;100323.44;2047703;28;20214;-45
2022/05/21 00:06:35;;;;;;;;;;;;;;;23.82;51.80;100326.19;2048792;28;19917;-46
2022/05/21 00:07:36;;;;;;;;;;;;;;;23.81;51.88;100324.47;2047567;28;19992;-46
2022/05/21 00:08:36;;;;;;;;;;;;;;;23.83;51.72;100333.41;2045325;28;20510;-45
2022/05/21 00:09:37;;;;;;;;;;;;;;;23.83;51.84;100327.06;2048225;28;19925;-50
2022/05/21 00:10:38;;;;;;;;;;;;;;;23.82;51.77;100326.19;2054031;28;19929;-47
2022/05/21 00:11:39;;;;;;;;;;;;;;;23.83;51.88;100318.78;2037035;28;19958;-46
2022/05/21 00:12:40;;;;;;;;;;;;;;;23.82;51.95;100315.19;2041527;28;20401;-44
2022/05/21 00:13:40;;;;;;;;;;;;;;;23.83;51.92;100324.31;2052378;28;19964;-47
2022/05/21 00:14:40;;;;;;;;;;;;;;;23.82;51.87;100320.69;2052136;28;19921;-45
2022/05/21 00:15:41;;;;;;;;;;;;;;;23.82;51.91;100320.69;2050079;28;19924;-47
2022/05/21 00:16:41;;;;;;;;;;;;;;;23.83;52.05;100316.91;2043378;28;19929;-46
2022/05/21 00:17:41;;;;;;;;;;;;;;;23.83;51.91;100316.91;2042979;28;19958;-46
2022/05/21 00:18:42;;;;;;;;;;;;;;;23.82;52.00;100315.19;2052255;28;20410;-45
2022/05/21 00:19:42;;;;;;;;;;;;;;;23.81;51.89;100313.47;2051908;28;19972;-45
2022/05/21 00:20:48;;;;;;;;;;;;;;;23.82;51.94;100312.44;2052544;28;19918;-44
2022/05/21 00:21:49;;;;;;;;;;;;;;;23.82;51.91;100312.44;2042693;28;19918;-44
2022/05/21 00:22:49;;;;;;;;;;;;;;;23.83;52.02;100311.38;2042744;28;19910;-44
2022/05/21 00:23:50;;;;;;;;;;;;;;;23.83;51.97;100314.13;2051456;28;19910;-43
2022/05/21 00:24:50;;;;;;;;;;;;;;;23.83;52.01;100316.91;2052378;28;19918;-44
2022/05/21 00:26:01;;;;;;;;;;;;;;;23.83;51.94;100308.63;2052281;28;19987;-43
2022/05/21 00:27:02;;;;;;;;;;;;;;;23.81;51.93;100312.59;2052321;28;19924;-44
2022/05/21 00:28:02;;;;;;;;;;;;;;;23.82;51.88;100309.69;2047511;28;20482;-43
2022/05/21 00:29:03;;;;;;;;;;;;;;;23.82;51.99;100303.31;2052063;28;19917;-44
2022/05/21 00:30:03;;;;;;;;;;;;;;;23.82;51.84;100306.94;2051935;28;20490;-43
2022/05/21 00:31:04;;;;;;;;;;;;;;;23.82;51.97;100303.31;2051578;28;19920;-44
2022/05/21 00:32:05;;;;;;;;;;;;;;;23.82;51.90;100301.44;2052552;28;19968;-43
2022/05/21 00:33:06;;;;;;;;;;;;;;;23.82;51.90;100304.19;2049435;28;20071;-43
2022/05/21 00:34:06;;;;;;;;;;;;;;;23.82;51.86;100298.69;2047635;28;19910;-43
2022/05/21 00:35:07;;;;;;;;;;;;;;;23.83;51.90;100305.88;2051463;28;19977;-43
2022/05/21 00:36:08;;;;;;;;;;;;;;;23.82;51.94;100304.19;2049910;28;19933;-43
2022/05/21 00:37:08;;;;;;;;;;;;;;;23.82;51.88;100292.31;2049977;28;19961;-44
2022/05/21 00:38:09;;;;;;;;;;;;;;;23.82;51.89;100295.91;2049794;28;19960;-43
2022/05/21 00:39:10;;;;;;;;;;;;;;;23.81;51.97;100291.44;2047997;28;19929;-44
2022/05/21 00:40:10;;;;;;;;;;;;;;;23.81;51.77;100288.69;2051658;28;20320;-44
2022/05/21 00:41:12;;;;;;;;;;;;;;;23.81;51.80;100285.94;2042761;28;20361;-44
2022/05/21 00:42:13;;;;;;;;;;;;;;;23.81;51.95;100285.94;2041623;28;19922;-43
2022/05/21 00:43:32;;;;;;;;;;;;;;;23.81;51.76;100288.69;2047705;28;19934;-43
2022/05/21 00:44:32;;;;;;;;;;;;;;;23.80;51.75;100289.72;2047587;28;20000;-43
2022/05/21 00:45:32;;;;;;;;;;;;;;;23.81;51.80;100279.56;2049746;28;20364;-44
2022/05/21 00:46:38;;;;;;;;;;;;;;;23.80;51.70;100286.13;2049819;28;20306;-43
2022/05/21 00:47:38;;;;;;;;;;;;;;;23.81;51.62;100282.31;2051811;28;20296;-43
2022/05/21 00:48:39;;;;;;;;;;;;;;;23.80;51.76;100281.47;2043979;28;20097;-47
2022/05/21 00:49:40;;;;;;;;;;;;;;;23.80;51.78;100273.22;2039513;28;19942;-44
2022/05/21 00:50:41;;;;;;;;;;;;;;;23.80;51.73;100281.47;2050719;28;19914;-43
2022/05/21 00:51:43;;;;;;;;;;;;;;;23.80;51.74;100281.47;2051640;28;20225;-43
2022/05/21 00:52:44;;;;;;;;;;;;;;;23.81;51.74;100285.94;2047966;28;19924;-43
2022/05/21 00:53:45;;;;;;;;;;;;;;;23.81;51.85;100274.91;2048635;28;19917;-43
2022/05/21 00:54:50;;;;;;;;;;;;;;;23.81;51.72;100283.19;2045421;28;20267;-44
2022/05/21 00:55:51;;;;;;;;;;;;;;;23.81;51.84;100279.56;2052046;28;19918;-45
2022/05/21 00:56:54;;;;;;;;;;;;;;;23.82;51.87;100281.31;2050422;28;19917;-43
2022/05/21 01:00:36;;;;;;;;;;;;;;;23.82;52.04;100287.66;2051388;28;20684;-44
2022/05/21 01:01:39;;;;;;;;;;;;;;;23.82;51.99;100286.81;2050115;28;20510;-44
2022/05/21 01:02:44;;;;;;;;;;;;;;;23.82;51.96;100282.16;2051802;28;19918;-43
2022/05/21 01:03:44;;;;;;;;;;;;;;;23.82;52.14;100284.91;2051369;28;19918;-43
2022/05/21 01:04:44;;;;;;;;;;;;;;;23.80;52.04;100272.38;2054079;28;20000;-44
2022/05/21 01:05:46;;;;;;;;;;;;;;;23.81;51.96;100280.41;2048780;28;19949;-43
2022/05/21 01:06:48;;;;;;;;;;;;;;;23.82;52.04;100281.31;2051676;28;19996;-43
2022/05/21 01:07:50;;;;;;;;;;;;;;;23.81;51.99;100283.19;2053076;28;19924;-44
2022/05/21 01:08:50;;;;;;;;;;;;;;;23.81;52.08;100274.91;2053139;28;19917;-43
2022/05/21 01:09:53;;;;;;;;;;;;;;;23.80;52.06;100278.72;2052910;28;19910;-43
2022/05/21 01:10:56;;;;;;;;;;;;;;;23.81;51.99;100280.41;2044893;28;20516;-44
2022/05/21 01:11:56;;;;;;;;;;;;;;;23.81;52.08;100274.91;2044559;28;19919;-43
2022/05/21 01:12:57;;;;;;;;;;;;;;;23.82;52.06;100284.91;2052404;28;20317;-44
2022/05/21 01:13:58;;;;;;;;;;;;;;;23.81;52.07;100285.94;2054230;28;19909;-43
2022/05/21 01:15:00;;;;;;;;;;;;;;;23.81;52.23;100277.66;2052450;28;19914;-43
2022/05/21 01:16:01;;;;;;;;;;;;;;;23.81;52.04;100274.91;2053687;28;20043;-43
2022/05/21 01:17:03;;;;;;;;;;;;;;;23.81;51.96;100274.06;2053106;28;19955;-43
2022/05/21 01:18:06;;;;;;;;;;;;;;;23.81;52.01;100285.06;2044279;28;20305;-43
2022/05/21 01:19:07;;;;;;;;;;;;;;;23.80;51.97;100278.72;2040262;28;20380;-44
2022/05/21 01:20:13;;;;;;;;;;;;;;;23.80;52.09;100278.72;2043525;28;19965;-43
2022/05/21 01:21:14;;;;;;;;;;;;;;;23.80;51.97;100275.13;2044403;28;20301;-44
2022/05/21 01:22:14;;;;;;;;;;;;;;;23.79;51.99;100274.25;2044366;28;19922;-44
2022/05/21 01:23:16;;;;;;;;;;;;;;;23.79;51.93;100268.75;2051570;28;20187;-43
2022/05/21 01:24:16;;;;;;;;;;;;;;;23.79;51.97;100265.13;2052825;28;19917;-43
2022/05/21 01:25:21;;;;;;;;;;;;;;;23.79;51.93;100271.50;2051512;28;19971;-43
2022/05/21 01:26:21;;;;;;;;;;;;;;;23.79;52.02;100271.50;2051662;28;19909;-43
2022/05/21 01:27:23;;;;;;;;;;;;;;;23.79;52.02;100265.13;2053190;28;19952;-43
2022/05/21 01:28:25;;;;;;;;;;;;;;;23.79;51.99;100268.75;2053826;28;19925;-43
2022/05/21 01:29:27;;;;;;;;;;;;;;;23.79;52.04;100268.75;2050490;28;19921;-44
2022/05/21 01:30:32;;;;;;;;;;;;;;;23.78;51.95;100264.28;2051948;28;19988;-43
2022/05/21 01:31:32;;;;;;;;;;;;;;;23.79;51.89;100271.50;2053053;28;19917;-44
2022/05/21 01:32:33;;;;;;;;;;;;;;;23.78;51.92;100264.28;2052738;28;20008;-44
2022/05/21 01:33:35;;;;;;;;;;;;;;;23.79;51.99;100271.50;2053619;28;20305;-43
2022/05/21 01:34:35;;;;;;;;;;;;;;;23.80;51.97;100264.09;2053176;28;19944;-43
2022/05/21 01:35:36;;;;;;;;;;;;;;;23.80;51.95;100264.97;2051345;28;20461;-44
2022/05/21 01:36:36;;;;;;;;;;;;;;;23.79;51.94;100263.25;2051599;28;20333;-44
2022/05/21 01:37:38;;;;;;;;;;;;;;;23.80;51.96;100266.84;2053328;28;20337;-44
2022/05/21 01:38:38;;;;;;;;;;;;;;;23.79;52.00;100266.00;2051205;28;19910;-43
2022/05/21 01:39:39;;;;;;;;;;;;;;;23.80;52.07;100267.72;2054079;28;19910;-43
2022/05/21 01:40:39;;;;;;;;;;;;;;;23.79;52.04;100266.00;2050906;28;19944;-43
2022/05/21 01:41:43;;;;;;;;;;;;;;;23.80;51.99;100256.69;2042398;28;19910;-43
2022/05/21 01:44:37;;;;;;;;;;;;;;;23.80;52.08;100262.19;2048559;28;20069;-42
2022/05/21 01:45:23;;;;;;;;;;;;;;;23.80;52.13;100253.94;2045755;28;19938;-43
2022/05/21 01:46:23;;;;;;;;;;;;;;;23.80;51.98;100251.19;2047989;28;20274;-44
2022/05/21 01:47:23;;;;;;;;;;;;;;;23.79;52.07;100252.25;2052671;28;19920;-44
2022/05/21 01:48:26;;;;;;;;;;;;;;;23.81;52.08;100252.03;2048874;28;19945;-43
2022/05/21 01:49:26;;;;;;;;;;;;;;;23.78;52.13;100253.25;2050097;28;20694;-43
2022/05/21 01:50:26;;;;;;;;;;;;;;;23.79;52.18;100255.00;2051551;28;20417;-44
2022/05/21 01:51:26;;;;;;;;;;;;;;;23.80;51.99;100251.19;2047997;28;19929;-43
2022/05/21 01:52:27;;;;;;;;;;;;;;;23.80;52.03;100256.69;2048581;28;20333;-43
2022/05/21 01:53:28;;;;;;;;;;;;;;;23.80;52.08;100250.34;2048461;28;19924;-43
2022/05/21 01:54:28;;;;;;;;;;;;;;;23.78;52.09;100258.75;2049070;28;19954;-43
2022/05/21 01:55:29;;;;;;;;;;;;;;;23.79;52.04;100255.00;2052682;28;20313;-43
2022/05/21 01:56:29;;;;;;;;;;;;;;;23.78;52.13;100253.25;2046925;28;19918;-43
2022/05/21 01:57:29;;;;;;;;;;;;;;;23.79;52.13;100249.50;2049341;28;19918;-43
2022/05/21 01:58:29;;;;;;;;;;;;;;;23.78;52.01;100253.25;2049745;28;20314;-43
2022/05/21 01:59:30;;;;;;;;;;;;;;;23.78;52.12;100253.25;2052024;28;20614;-43
2022/05/21 02:00:30;;;;;;;;;;;;;;;23.78;52.16;100245.00;2050684;28;19960;-43
2022/05/21 02:01:31;;;;;;;;;;;;;;;23.78;52.16;100246.91;2048392;28;19924;-43
2022/05/21 02:02:33;;;;;;;;;;;;;;;23.78;52.20;100242.25;2053173;28;19910;-43
2022/05/21 02:03:34;;;;;;;;;;;;;;;23.77;52.24;100246.06;2053646;28;20013;-43
2022/05/21 02:04:34;;;;;;;;;;;;;;;23.78;52.15;100241.41;2055605;28;19917;-43
2022/05/21 02:05:34;;;;;;;;;;;;;;;23.78;52.15;100246.91;2052656;28;19981;-43
2022/05/21 02:06:35;;;;;;;;;;;;;;;23.77;52.23;100237.78;2052252;28;19921;-43
2022/05/21 02:07:35;;;;;;;;;;;;;;;23.77;52.24;100239.69;2050802;28;19913;-43
2022/05/21 02:08:36;;;;;;;;;;;;;;;23.77;52.17;100243.31;2049793;28;19997;-43
2022/05/21 02:09:36;;;;;;;;;;;;;;;23.76;52.19;100238.81;2053448;28;19917;-43
2022/05/21 02:10:37;;;;;;;;;;;;;;;23.78;52.22;100239.50;2048966;28;19918;-42
2022/05/21 02:11:37;;;;;;;;;;;;;;;23.78;52.22;100235.91;2052531;28;19952;-43
2022/05/21 02:12:39;;;;;;;;;;;;;;;23.77;52.24;100240.53;2042477;28;19924;-42
2022/05/21 02:13:39;;;;;;;;;;;;;;;23.78;52.24;100231.25;2040676;28;19965;-43
2022/05/21 02:14:40;;;;;;;;;;;;;;;23.78;52.31;100236.75;2053034;28;19977;-43
2022/05/21 02:15:41;;;;;;;;;;;;;;;23.78;52.18;100236.75;2050987;28;19917;-43
2022/05/21 02:16:41;;;;;;;;;;;;;;;23.78;52.30;100225.72;2041975;28;19968;-43
2022/05/21 02:17:41;;;;;;;;;;;;;;;23.78;52.26;100231.25;2044621;28;19966;-44
2022/05/21 02:18:42;;;;;;;;;;;;;;;23.78;52.24;100222.97;2052928;28;20301;-44
2022/05/21 02:19:42;;;;;;;;;;;;;;;23.77;52.29;100232.28;2044470;28;19922;-44
2022/05/21 02:20:43;;;;;;;;;;;;;;;23.78;52.31;100231.25;2042349;28;20174;-44
2022/05/21 02:21:43;;;;;;;;;;;;;;;23.78;52.23;100239.50;2052955;28;20359;-45
2022/05/21 02:22:43;;;;;;;;;;;;;;;23.77;52.16;100221.28;2045377;28;20529;-44
2022/05/21 02:23:44;;;;;;;;;;;;;;;23.78;52.21;100222.97;2043510;28;20895;-43
2022/05/21 02:24:44;;;;;;;;;;;;;;;23.77;52.17;100224.03;2053581;28;20245;-43
2022/05/21 02:25:45;;;;;;;;;;;;;;;23.78;52.13;100236.75;2054340;28;19991;-43
2022/05/21 02:26:45;;;;;;;;;;;;;;;23.77;52.18;100229.53;2053309;28;20296;-43
2022/05/21 02:27:46;;;;;;;;;;;;;;;23.77;52.17;100229.53;2054226;28;19928;-45
2022/05/21 02:28:47;;;;;;;;;;;;;;;23.77;52.16;100226.78;2053696;28;19964;-43
2022/05/21 02:29:48;;;;;;;;;;;;;;;23.78;52.15;100225.72;2045803;28;19921;-43
2022/05/21 02:30:48;;;;;;;;;;;;;;;23.77;52.17;100235.03;2048657;28;20325;-43
2022/05/21 02:31:50;;;;;;;;;;;;;;;23.77;52.19;100224.03;2051391;28;19917;-43
2022/05/21 02:32:51;;;;;;;;;;;;;;;23.78;52.13;100235.91;2051560;28;20498;-44
2022/05/21 02:33:51;;;;;;;;;;;;;;;23.77;52.26;100235.03;2048949;28;19929;-43
2022/05/21 02:34:51;;;;;;;;;;;;;;;23.77;52.15;100232.28;2052889;28;19926;-43
2022/05/21 02:35:52;;;;;;;;;;;;;;;23.75;52.15;100232.44;2048074;28;19925;-43
2022/05/21 02:39:30;;;;;;;;;;;;;;;23.77;52.20;100228.69;2050209;28;19917;-43
2022/05/21 02:40:30;;;;;;;;;;;;;;;23.75;52.17;100231.59;2051136;28;20296;-44
2022/05/21 02:41:31;;;;;;;;;;;;;;;23.75;52.17;100226.09;2051872;28;20013;-44
2022/05/21 02:42:43;;;;;;;;;;;;;;;23.75;52.25;100226.09;2053826;28;20163;-43
2022/05/21 02:43:44;;;;;;;;;;;;;;;23.76;52.26;100238.81;2050976;28;20592;-45
2022/05/21 02:44:44;;;;;;;;;;;;;;;23.75;52.17;100231.59;2052332;28;20301;-44
2022/05/21 02:45:44;;;;;;;;;;;;;;;23.76;52.20;100222.28;2051904;28;19964;-43
2022/05/21 02:46:45;;;;;;;;;;;;;;;23.75;52.16;100218.69;2049793;28;19926;-43
2022/05/21 02:47:45;;;;;;;;;;;;;;;23.75;52.21;100217.84;2052528;28;20172;-43
2022/05/21 02:48:46;;;;;;;;;;;;;;;23.74;52.28;100214.25;2053069;28;19918;-43
2022/05/21 02:49:46;;;;;;;;;;;;;;;23.75;52.22;100218.69;2051444;28;19925;-44
2022/05/21 02:50:46;;;;;;;;;;;;;;;23.75;52.17;100215.94;2053245;28;20321;-44
2022/05/21 02:51:47;;;;;;;;;;;;;;;23.76;52.22;100216.78;2051346;28;20004;-44
2022/05/21 02:52:47;;;;;;;;;;;;;;;23.75;52.30;100221.44;2051413;28;20001;-44
2022/05/21 02:53:47;;;;;;;;;;;;;;;23.76;52.27;100216.78;2052946;28;19914;-43
2022/05/21 02:54:47;;;;;;;;;;;;;;;23.75;52.24;100220.59;2050356;28;19994;-44
2022/05/21 02:55:50;;;;;;;;;;;;;;;23.76;52.26;100216.78;2051814;28;19943;-43
2022/05/21 02:56:51;;;;;;;;;;;;;;;23.75;52.23;100215.94;2053103;28;19910;-43
2022/05/21 02:57:51;;;;;;;;;;;;;;;23.75;52.17;100209.59;2050249;28;20345;-43
2022/05/21 02:58:52;;;;;;;;;;;;;;;23.75;52.24;100209.59;2054089;28;20349;-43
2022/05/21 02:59:52;;;;;;;;;;;;;;;23.75;52.19;100210.44;2058007;28;19914;-44
2022/05/21 03:00:53;;;;;;;;;;;;;;;23.76;52.14;100211.28;2051157;28;19925;-43
2022/05/21 03:01:53;;;;;;;;;;;;;;;23.75;52.15;100215.94;2045044;28;20329;-42
2022/05/21 03:02:54;;;;;;;;;;;;;;;23.75;52.11;100206.84;2049977;28;19918;-42
2022/05/21 03:03:54;;;;;;;;;;;;;;;23.75;52.24;100204.09;2051196;28;19918;-44
2022/05/21 03:04:55;;;;;;;;;;;;;;;23.75;52.16;100204.09;2053104;28;19936;-43
2022/05/21 03:05:55;;;;;;;;;;;;;;;23.74;52.19;100205.97;2049747;28;20288;-43
2022/05/21 03:06:56;;;;;;;;;;;;;;;23.74;52.07;100205.13;2050460;28;19966;-44
2022/05/21 03:07:57;;;;;;;;;;;;;;;23.74;52.05;100207.88;2043895;28;20161;-42
2022/05/21 03:10:22;;;;;;;;;;;;;;;23.74;52.10;100208.72;2048957;28;19911;-44
2022/05/21 03:11:22;;;;;;;;;;;;;;;23.74;52.09;100205.97;2048995;28;19928;-43
2022/05/21 03:12:23;;;;;;;;;;;;;;;23.73;52.17;100207.00;2049613;28;19918;-42
2022/05/21 03:13:23;;;;;;;;;;;;;;;23.74;52.06;100202.38;2048590;28;19925;-43
2022/05/21 03:14:24;;;;;;;;;;;;;;;23.74;52.11;100205.13;2052115;28;20138;-43
2022/05/21 03:15:38;;;;;;;;;;;;;;;23.73;52.19;100200.63;2049067;28;20124;-42
2022/05/21 03:16:38;;;;;;;;;;;;;;;23.73;52.10;100206.16;2049316;28;20270;-43
2022/05/21 03:17:39;;;;;;;;;;;;;;;23.74;52.12;100199.63;2053011;28;19917;-43
2022/05/21 03:18:39;;;;;;;;;;;;;;;23.72;52.04;100201.66;2049115;28;20454;-43
2022/05/21 03:19:39;;;;;;;;;;;;;;;23.72;52.21;100193.41;2051704;28;19928;-43
2022/05/21 03:20:40;;;;;;;;;;;;;;;23.72;52.17;100201.66;2049901;28;20532;-43
2022/05/21 03:21:40;;;;;;;;;;;;;;;23.72;52.06;100196.16;2052024;28;19913;-43
2022/05/21 03:22:41;;;;;;;;;;;;;;;23.73;52.06;100200.63;2053062;28;19918;-43
2022/05/21 03:23:41;;;;;;;;;;;;;;;23.73;52.18;100203.41;2051071;28;20280;-42
2022/05/21 03:24:42;;;;;;;;;;;;;;;23.72;52.06;100198.91;2050843;28;19922;-42
2022/05/21 03:25:43;;;;;;;;;;;;;;;23.73;52.04;100195.13;2052764;28;19910;-42
2022/05/21 03:26:43;;;;;;;;;;;;;;;23.73;52.03;100200.63;2051307;28;20032;-43
2022/05/21 03:27:43;;;;;;;;;;;;;;;23.73;52.01;100200.63;2043251;28;19985;-43
2022/05/21 03:28:44;;;;;;;;;;;;;;;23.73;52.06;100203.41;2044035;28;19945;-42
2022/05/21 03:29:44;;;;;;;;;;;;;;;23.73;52.09;100200.63;2050746;28;19910;-43
2022/05/21 03:30:44;;;;;;;;;;;;;;;23.73;51.99;100197.88;2053482;28;19918;-42
2022/05/21 03:31:44;;;;;;;;;;;;;;;23.73;52.06;100196.00;2050844;28;19916;-43
2022/05/21 03:32:45;;;;;;;;;;;;;;;23.73;51.96;100190.47;2051158;28;20047;-42
2022/05/21 03:33:46;;;;;;;;;;;;;;;23.73;52.01;100201.50;2052904;28;19910;-43
2022/05/21 03:34:46;;;;;;;;;;;;;;;23.73;51.95;100201.50;2051439;28;19953;-43
2022/05/21 03:35:47;;;;;;;;;;;;;;;23.74;51.92;100202.38;2052885;28;19917;-42
2022/05/21 03:36:47;;;;;;;;;;;;;;;23.73;52.02;100200.63;2048818;28;19922;-42
2022/05/21 03:37:48;;;;;;;;;;;;;;;23.72;52.07;100199.75;2053382;28;20446;-42
2022/05/21 03:38:49;;;;;;;;;;;;;;;23.74;51.99;100196.88;2050154;28;20363;-42
2022/05/21 03:39:50;;;;;;;;;;;;;;;23.73;52.02;100200.63;2052054;28;19918;-43
2022/05/21 03:40:51;;;;;;;;;;;;;;;23.74;52.03;100196.88;2051059;28;19917;-42
2022/05/21 03:41:51;;;;;;;;;;;;;;;23.73;51.90;100192.38;2052111;28;19922;-42
2022/05/21 03:42:52;;;;;;;;;;;;;;;23.72;51.95;100199.75;2052580;28;20284;-42
2022/05/21 03:43:54;;;;;;;;;;;;;;;23.72;52.06;100201.66;2050250;28;20041;-42
2022/05/21 03:44:54;;;;;;;;;;;;;;;23.72;51.89;100201.66;2053908;28;20333;-43
2022/05/21 03:45:55;;;;;;;;;;;;;;;23.72;52.01;100204.41;2049707;28;19918;-42
2022/05/21 03:46:58;;;;;;;;;;;;;;;23.72;52.00;100193.41;2053327;28;19922;-42
2022/05/21 03:47:59;;;;;;;;;;;;;;;23.71;52.00;100197.16;2051971;28;19960;-42
2022/05/21 03:48:59;;;;;;;;;;;;;;;23.70;51.92;100196.31;2055590;28;19922;-43
2022/05/21 03:50:00;;;;;;;;;;;;;;;23.70;51.98;100196.31;2052498;28;20299;-42
2022/05/21 03:51:00;;;;;;;;;;;;;;;23.71;52.05;100197.16;2051479;28;20000;-43
2022/05/21 03:52:01;;;;;;;;;;;;;;;23.70;51.94;100200.97;2050499;28;20479;-43
2022/05/21 03:53:01;;;;;;;;;;;;;;;23.70;52.00;100199.06;2052559;28;20447;-43
2022/05/21 03:54:01;;;;;;;;;;;;;;;23.69;51.99;100205.63;2051993;28;19933;-42
2022/05/21 03:55:02;;;;;;;;;;;;;;;23.70;52.04;100201.81;2052397;28;19922;-42
2022/05/21 03:56:02;;;;;;;;;;;;;;;23.69;52.05;100200.13;2050592;28;19917;-43
2022/05/21 03:57:04;;;;;;;;;;;;;;;23.70;52.16;100199.06;2041810;28;19914;-42
2022/05/21 03:58:04;;;;;;;;;;;;;;;23.69;52.04;100188.22;2034971;28;19919;-42
2022/05/21 03:59:05;;;;;;;;;;;;;;;23.70;52.06;100200.97;2044965;28;19924;-43
2022/05/21 04:00:07;;;;;;;;;;;;;;;23.70;52.07;100196.31;2050142;28;19937;-42
2022/05/21 04:01:07;;;;;;;;;;;;;;;23.70;51.99;100196.31;2051425;28;19965;-42
2022/05/21 04:02:07;;;;;;;;;;;;;;;23.70;52.03;100201.81;2053226;28;19906;-42
2022/05/21 04:03:08;;;;;;;;;;;;;;;23.70;52.04;100199.06;2051068;28;19977;-42
2022/05/21 04:04:08;;;;;;;;;;;;;;;23.69;52.00;100194.63;2052199;28;20300;-43
2022/05/21 04:05:10;;;;;;;;;;;;;;;23.69;52.04;100202.00;2051233;28;20240;-42
2022/05/21 04:06:11;;;;;;;;;;;;;;;23.71;51.99;100202.69;2052073;28;19914;-43
2022/05/21 04:07:11;;;;;;;;;;;;;;;23.70;51.98;100200.97;2052487;28;19914;-42
2022/05/21 04:08:11;;;;;;;;;;;;;;;23.70;51.98;100195.47;2052029;28;19971;-42
2022/05/21 04:09:12;;;;;;;;;;;;;;;23.71;52.05;100197.16;2051284;28;19918;-42
2022/05/21 04:10:14;;;;;;;;;;;;;;;23.70;51.98;100196.31;2052210;28;19917;-42
2022/05/21 04:11:14;;;;;;;;;;;;;;;23.71;52.10;100197.16;2052297;28;19918;-42
2022/05/21 04:12:15;;;;;;;;;;;;;;;23.70;51.97;100200.97;2050677;28;19992;-42
2022/05/21 04:13:15;;;;;;;;;;;;;;;23.70;52.04;100192.72;2050152;28;19936;-42
2022/05/21 04:14:16;;;;;;;;;;;;;;;23.70;52.02;100195.47;2051158;28;19917;-43
2022/05/21 04:15:16;;;;;;;;;;;;;;;23.71;52.00;100197.16;2052803;28;20295;-43
2022/05/21 04:16:17;;;;;;;;;;;;;;;23.70;52.03;100185.31;2051653;28;20301;-43
2022/05/21 04:17:17;;;;;;;;;;;;;;;23.70;51.84;100187.22;2051776;28;20404;-43
2022/05/21 04:18:18;;;;;;;;;;;;;;;23.70;52.05;100187.22;2052664;28;19914;-42
2022/05/21 04:19:18;;;;;;;;;;;;;;;23.69;51.96;100189.13;2052591;28;20279;-42
2022/05/21 04:20:20;;;;;;;;;;;;;;;23.70;51.94;100195.47;2052423;28;19945;-42
2022/05/21 04:21:20;;;;;;;;;;;;;;;23.70;51.97;100198.22;2033958;28;20041;-42
2022/05/21 04:22:20;;;;;;;;;;;;;;;23.71;51.83;100197.16;2035778;28;19959;-43
2022/05/21 04:23:21;;;;;;;;;;;;;;;23.70;51.79;100192.72;2050683;28;20551;-43
2022/05/21 04:24:22;;;;;;;;;;;;;;;23.70;51.90;100190.81;2053160;28;20585;-42
2022/05/21 04:25:22;;;;;;;;;;;;;;;23.70;51.97;100189.97;2050769;28;19918;-43
2022/05/21 04:26:22;;;;;;;;;;;;;;;23.69;51.91;100193.72;2051196;28;20746;-42
2022/05/21 04:27:23;;;;;;;;;;;;;;;23.69;51.87;100188.22;2052371;28;19917;-42
2022/05/21 04:28:23;;;;;;;;;;;;;;;23.68;51.93;100192.03;2051169;28;19913;-42
2022/05/21 04:29:23;;;;;;;;;;;;;;;23.68;51.99;100190.13;2051724;28;19914;-42
2022/05/21 04:30:28;;;;;;;;;;;;;;;23.69;51.91;100188.22;2053107;28;19918;-43
2022/05/21 04:31:28;;;;;;;;;;;;;;;23.68;51.92;100189.28;2051373;28;19989;-43
2022/05/21 04:32:29;;;;;;;;;;;;;;;23.68;52.06;100186.53;2053710;28;19918;-43
2022/05/21 04:33:29;;;;;;;;;;;;;;;23.68;51.96;100186.53;2051612;28;20383;-42
2022/05/21 04:34:29;;;;;;;;;;;;;;;23.67;51.89;100184.81;2042064;28;19934;-43
2022/05/21 04:36:49;;;;;;;;;;;;;;;23.67;51.96;100188.44;2050634;28;19925;-43
2022/05/21 04:37:49;;;;;;;;;;;;;;;23.66;51.97;100177.59;2047321;28;19918;-42
2022/05/21 04:38:51;;;;;;;;;;;;;;;23.66;51.97;100183.09;2050777;28;19918;-42
2022/05/21 04:39:51;;;;;;;;;;;;;;;23.67;51.96;100179.31;2052100;28;19917;-43
2022/05/21 04:40:52;;;;;;;;;;;;;;;23.68;51.92;100186.53;2048012;28;19953;-42
2022/05/21 04:41:52;;;;;;;;;;;;;;;23.67;52.03;100173.81;2048499;28;20855;-42
2022/05/21 04:42:53;;;;;;;;;;;;;;;23.66;51.89;100172.94;2046405;28;19914;-42
2022/05/21 04:43:53;;;;;;;;;;;;;;;23.67;51.98;100173.81;2050389;28;19945;-43
2022/05/21 04:44:54;;;;;;;;;;;;;;;23.68;52.00;100175.53;2049351;28;20209;-42
2022/05/21 04:45:55;;;;;;;;;;;;;;;23.68;51.96;100172.75;2051468;28;19956;-48
2022/05/21 04:46:55;;;;;;;;;;;;;;;23.68;51.92;100176.38;2051339;28;20063;-42
2022/05/21 04:47:55;;;;;;;;;;;;;;;23.66;52.00;100169.34;2051259;28;20301;-42
2022/05/21 04:48:56;;;;;;;;;;;;;;;23.68;51.88;100170.00;2046570;28;20301;-43
2022/05/21 04:49:56;;;;;;;;;;;;;;;23.67;52.01;100174.66;2052121;28;19918;-42
2022/05/21 04:51:00;;;;;;;;;;;;;;;23.67;52.06;100168.31;2052979;28;20549;-43
2022/05/21 04:52:01;;;;;;;;;;;;;;;23.67;51.87;100169.16;2049990;28;20535;-43
2022/05/21 04:53:02;;;;;;;;;;;;;;;23.68;52.03;100170.00;2052785;28;19910;-43
2022/05/21 04:54:03;;;;;;;;;;;;;;;23.68;51.93;100172.75;2051361;28;20329;-42
2022/05/21 04:55:06;;;;;;;;;;;;;;;23.66;51.95;100164.69;2052872;28;19922;-42
2022/05/21 04:56:06;;;;;;;;;;;;;;;23.67;51.88;100169.16;2050968;28;19918;-43
2022/05/21 04:57:06;;;;;;;;;;;;;;;23.68;52.01;100170.00;2051264;28;19918;-42
2022/05/21 04:58:07;;;;;;;;;;;;;;;23.67;51.95;100163.66;2041834;28;20147;-42
2022/05/21 04:59:10;;;;;;;;;;;;;;;23.67;51.98;100162.81;2043190;28;19929;-43
2022/05/21 05:00:11;;;;;;;;;;;;;;;23.66;51.99;100159.16;2050857;28;19960;-42
2022/05/21 05:01:11;;;;;;;;;;;;;;;23.67;52.03;100152.66;2052704;28;19928;-43
2022/05/21 05:02:12;;;;;;;;;;;;;;;23.68;52.02;100156.25;2052127;28;20317;-43
2022/05/21 05:03:14;;;;;;;;;;;;;;;23.68;52.09;100153.50;2051638;28;19949;-42
2022/05/21 05:04:14;;;;;;;;;;;;;;;23.66;52.05;100155.56;2050814;28;19918;-42
2022/05/21 05:05:14;;;;;;;;;;;;;;;23.66;52.08;100158.31;2049978;28;19917;-43
2022/05/21 05:06:15;;;;;;;;;;;;;;;23.67;52.02;100157.31;2052128;28;20490;-42
2022/05/21 05:07:19;;;;;;;;;;;;;;;23.66;52.08;100158.31;2042426;28;19985;-42
2022/05/21 05:08:20;;;;;;;;;;;;;;;23.66;52.15;100155.56;2042188;28;19941;-43
2022/05/21 05:09:22;;;;;;;;;;;;;;;23.65;52.09;100149.22;2051468;28;20610;-42
2022/05/21 05:10:23;;;;;;;;;;;;;;;23.66;52.07;100150.06;2050851;28;19918;-43
2022/05/21 05:11:23;;;;;;;;;;;;;;;23.66;52.07;100150.06;2052023;28;19968;-43
2022/05/21 05:12:23;;;;;;;;;;;;;;;23.65;52.03;100145.63;2050391;28;19921;-42
2022/05/21 05:13:24;;;;;;;;;;;;;;;23.64;52.06;100141.13;2050488;28;19967;-42
2022/05/21 05:14:24;;;;;;;;;;;;;;;23.64;52.05;100147.50;2049613;28;19926;-42
2022/05/21 05:15:24;;;;;;;;;;;;;;;23.64;52.06;100146.63;2049030;28;19929;-42
2022/05/21 05:16:25;;;;;;;;;;;;;;;23.65;52.04;100142.88;2051448;28;20261;-42
2022/05/21 05:17:25;;;;;;;;;;;;;;;23.64;52.01;100141.13;2050789;28;19914;-43
2022/05/21 05:18:30;;;;;;;;;;;;;;;23.64;52.06;100146.63;2052054;28;19917;-42
2022/05/21 05:19:31;;;;;;;;;;;;;;;23.63;52.09;100143.03;2052755;28;19917;-43
2022/05/21 05:20:32;;;;;;;;;;;;;;;23.63;52.09;100140.28;2054100;28;19922;-43
2022/05/21 05:21:33;;;;;;;;;;;;;;;23.64;52.02;100143.88;2048740;28;20363;-43
2022/05/21 05:22:33;;;;;;;;;;;;;;;23.64;51.97;100141.13;2053342;28;20016;-43